createdAt,value
2019-03-20T00:03:28.930Z,3.20
2019-03-20T00:08:23.265Z,3.26
2019-03-20T00:13:17.330Z,3.24
2019-03-20T00:18:11.303Z,3.32
2019-03-20T00:23:05.260Z,3.32
2019-03-20T00:27:59.225Z,3.33
2019-03-20T00:32:53.257Z,3.29
2019-03-20T00:37:47.222Z,3.24
2019-03-20T00:42:41.422Z,3.26
2019-03-20T00:47:35.375Z,3.27
2019-03-20T00:52:29.436Z,3.16
2019-03-20T00:57:23.407Z,3.08
2019-03-20T01:02:17.480Z,3.06
2019-03-20T01:07:11.551Z,3.14
2019-03-20T01:12:05.552Z,3.20
2019-03-20T01:16:59.510Z,3.23
2019-03-20T01:21:53.573Z,3.27
2019-03-20T01:26:47.533Z,3.22
2019-03-20T01:31:41.638Z,3.22
2019-03-20T01:36:35.744Z,3.16
2019-03-20T01:41:37.584Z,3.02
2019-03-20T01:46:25.653Z,2.98
2019-03-20T01:51:20.518Z,2.98
2019-03-20T01:56:14.486Z,2.99
2019-03-20T02:01:08.544Z,2.89
2019-03-20T02:06:02.632Z,2.82
2019-03-20T02:10:56.589Z,2.79
2019-03-20T02:15:50.559Z,2.74
2019-03-20T02:20:44.668Z,2.69
2019-03-20T02:25:38.718Z,2.63
2019-03-20T02:30:32.709Z,2.59
2019-03-20T02:35:26.769Z,2.52
2019-03-20T02:40:20.707Z,2.58
2019-03-20T02:45:15.582Z,2.59
2019-03-20T02:50:10.763Z,2.66
2019-03-20T02:55:07.008Z,2.73
2019-03-20T03:00:01.565Z,2.71
2019-03-20T03:04:56.555Z,2.70
2019-03-20T03:09:50.556Z,2.74
2019-03-20T03:14:44.680Z,2.78
2019-03-20T03:19:38.653Z,2.75
2019-03-20T03:24:32.632Z,2.74
2019-03-20T03:29:26.577Z,2.70
2019-03-20T03:34:20.612Z,2.68
2019-03-20T03:39:14.588Z,2.64
2019-03-20T03:44:08.551Z,2.62
2019-03-20T03:49:02.709Z,2.62
2019-03-20T03:53:56.670Z,2.60
2019-03-20T03:58:50.621Z,2.57
2019-03-20T04:03:44.624Z,2.55
2019-03-20T04:08:39.077Z,2.49
2019-03-20T04:13:33.025Z,2.40
2019-03-20T04:18:27.000Z,2.51
2019-03-20T04:23:20.968Z,2.51
2019-03-20T04:28:15.019Z,2.53
2019-03-20T04:33:08.962Z,2.49
2019-03-20T04:38:02.936Z,2.41
2019-03-20T04:42:56.886Z,2.40
2019-03-20T04:47:50.928Z,2.48
2019-03-20T04:52:44.976Z,2.52
2019-03-20T04:57:39.119Z,2.51
2019-03-20T05:02:33.088Z,2.50
2019-03-20T05:07:27.034Z,2.54
2019-03-20T05:12:20.985Z,2.62
2019-03-20T05:17:14.948Z,2.61
2019-03-20T05:22:08.912Z,2.62
2019-03-20T05:27:03.167Z,2.60
2019-03-20T05:31:57.169Z,2.63
2019-03-20T05:36:51.149Z,2.70
2019-03-20T05:41:45.142Z,2.71
2019-03-20T05:46:39.112Z,2.79
2019-03-20T05:51:33.200Z,2.96
2019-03-20T05:56:27.215Z,3.12
2019-03-20T06:01:21.203Z,3.22
2019-03-20T06:06:15.160Z,3.29
2019-03-20T06:11:09.201Z,3.41
2019-03-20T06:16:03.166Z,3.69
2019-03-20T06:20:57.169Z,3.95
2019-03-20T06:25:51.655Z,4.27
2019-03-20T06:30:45.783Z,4.60
2019-03-20T06:35:39.789Z,4.90
2019-03-20T06:40:33.765Z,5.19
2019-03-20T06:45:27.775Z,5.24
2019-03-20T06:50:22.147Z,5.31
2019-03-20T06:55:16.092Z,5.40
2019-03-20T07:00:36.764Z,5.80
2019-03-20T07:05:51.347Z,5.80
2019-03-20T07:10:54.495Z,6.02
2019-03-20T07:15:50.393Z,6.13
2019-03-20T07:20:44.371Z,6.29
2019-03-20T07:25:38.504Z,6.61
2019-03-20T07:30:32.463Z,6.60
2019-03-20T07:35:26.447Z,6.66
2019-03-20T07:40:20.427Z,6.63
2019-03-20T07:45:14.427Z,6.66
2019-03-20T07:50:09.289Z,7.07
2019-03-20T07:55:03.655Z,7.40
2019-03-20T07:59:57.620Z,7.53
2019-03-20T08:04:51.880Z,7.85
2019-03-20T08:09:45.832Z,7.93
2019-03-20T08:14:39.819Z,8.21
2019-03-20T08:19:35.729Z,8.42
2019-03-20T08:24:29.768Z,8.98
2019-03-20T08:29:23.773Z,9.01
2019-03-20T08:34:17.758Z,8.59
2019-03-20T08:39:11.736Z,8.44
2019-03-20T08:44:05.705Z,8.88
2019-03-20T08:48:59.667Z,8.88
2019-03-20T08:53:56.183Z,9.04
2019-03-20T08:58:49.547Z,9.46
2019-03-20T09:03:43.504Z,9.77
2019-03-20T09:08:37.486Z,9.92
2019-03-20T09:13:33.382Z,10.35
2019-03-20T09:18:27.467Z,10.76
2019-03-20T09:23:21.443Z,10.97
2019-03-20T09:28:15.419Z,11.45
2019-03-20T09:33:09.459Z,11.46
2019-03-20T09:38:03.519Z,11.75
2019-03-20T09:42:57.510Z,12.02
2019-03-20T09:47:51.492Z,11.59
2019-03-20T09:52:45.570Z,11.93
2019-03-20T09:57:39.747Z,12.58
2019-03-20T10:02:33.698Z,13.05
2019-03-20T10:07:27.787Z,13.33
2019-03-20T10:12:21.984Z,13.55
2019-03-20T10:17:17.328Z,14.15
2019-03-20T10:22:11.487Z,14.27
2019-03-20T10:27:05.596Z,13.85
2019-03-20T10:31:59.585Z,14.66
2019-03-20T10:36:53.672Z,15.64
2019-03-20T10:41:47.665Z,16.32
2019-03-20T10:46:41.834Z,16.78
2019-03-20T10:51:35.818Z,16.86
2019-03-20T10:56:29.793Z,16.95
2019-03-20T11:01:23.777Z,17.45
2019-03-20T11:06:17.952Z,18.70
2019-03-20T11:11:11.916Z,18.70
2019-03-20T11:16:05.861Z,18.80
2019-03-20T11:20:59.973Z,19.02
2019-03-20T11:25:54.005Z,19.57
2019-03-20T11:30:47.993Z,19.80
2019-03-20T11:35:42.594Z,19.60
2019-03-20T11:40:37.800Z,20.82
2019-03-20T11:45:31.977Z,21.37
2019-03-20T11:50:37.147Z,23.82
2019-03-20T11:55:31.130Z,23.74
2019-03-20T12:00:25.601Z,23.19
2019-03-20T12:05:19.792Z,21.44
2019-03-20T12:10:23.417Z,20.47
2019-03-20T12:15:17.647Z,19.51
2019-03-20T12:20:17.216Z,19.63
2019-03-20T12:25:17.108Z,22.49
2019-03-20T12:30:14.006Z,22.33
2019-03-20T12:35:10.929Z,21.45
2019-03-20T12:40:14.527Z,19.38
2019-03-20T12:45:12.249Z,20.08
2019-03-20T12:50:10.239Z,21.72
2019-03-20T12:55:07.760Z,22.48
2019-03-20T13:00:05.579Z,22.00
2019-03-20T13:04:59.780Z,21.20
2019-03-20T13:09:56.166Z,20.27
2019-03-20T13:14:49.665Z,19.27
2019-03-20T13:19:43.862Z,18.94
2019-03-20T13:24:37.838Z,18.74
2019-03-20T13:29:31.824Z,19.41
2019-03-20T13:34:25.837Z,21.02
2019-03-20T13:39:19.836Z,21.99
2019-03-20T13:44:13.806Z,23.10
2019-03-20T13:49:07.785Z,22.45
2019-03-20T13:54:01.820Z,21.16
2019-03-20T13:58:55.797Z,20.54
2019-03-20T14:03:49.894Z,19.79
2019-03-20T14:08:43.868Z,20.96
2019-03-20T14:13:37.847Z,21.36
2019-03-20T14:18:31.845Z,20.57
2019-03-20T14:23:26.007Z,19.75
2019-03-20T14:28:20.165Z,19.34
2019-03-20T14:33:14.214Z,19.12
2019-03-20T14:38:08.199Z,18.49
2019-03-20T14:43:02.337Z,18.64
2019-03-20T14:47:56.541Z,17.94
2019-03-20T14:52:50.734Z,17.44
2019-03-20T14:57:44.819Z,17.58
2019-03-20T15:02:38.920Z,17.11
2019-03-20T15:07:32.890Z,17.52
2019-03-20T15:12:26.989Z,17.57
2019-03-20T15:17:20.980Z,17.23
2019-03-20T15:22:15.046Z,17.33
2019-03-20T15:27:09.021Z,16.98
2019-03-20T15:32:03.454Z,16.79
2019-03-20T15:36:57.466Z,16.82
2019-03-20T15:41:51.454Z,16.69
2019-03-20T15:46:45.441Z,16.64
2019-03-20T15:51:39.436Z,16.73
2019-03-20T15:56:33.401Z,16.89
2019-03-20T16:01:27.432Z,16.74
2019-03-20T16:06:21.642Z,16.35
2019-03-20T16:11:15.725Z,15.74
2019-03-20T16:16:09.843Z,15.83
2019-03-20T16:21:03.847Z,15.83
2019-03-20T16:25:57.852Z,16.15
2019-03-20T16:30:51.836Z,16.78
2019-03-20T16:35:45.846Z,18.37
2019-03-20T16:40:39.828Z,18.85
2019-03-20T16:45:36.123Z,17.05
2019-03-20T16:50:30.093Z,15.88
2019-03-20T16:55:24.207Z,15.22
2019-03-20T17:00:20.210Z,14.93
2019-03-20T17:05:14.469Z,14.36
2019-03-20T17:10:15.217Z,14.18
2019-03-20T17:15:12.993Z,14.02
2019-03-20T17:20:07.276Z,13.91
2019-03-20T17:25:01.393Z,13.70
2019-03-20T17:29:55.358Z,13.57
2019-03-20T17:34:49.429Z,13.40
2019-03-20T17:39:43.428Z,13.13
2019-03-20T17:44:37.405Z,12.84
2019-03-20T17:49:31.369Z,12.46
2019-03-20T17:54:25.459Z,12.20
2019-03-20T17:59:19.496Z,11.94
2019-03-20T18:04:13.973Z,11.76
2019-03-20T18:09:08.170Z,11.50
2019-03-20T18:14:02.201Z,11.27
2019-03-20T18:18:56.297Z,11.08
2019-03-20T18:23:50.604Z,10.89
2019-03-20T18:28:44.728Z,10.70
2019-03-20T18:33:38.804Z,10.51
2019-03-20T18:38:32.951Z,10.35
2019-03-20T18:43:26.953Z,10.23
2019-03-20T18:48:20.990Z,10.18
2019-03-20T18:53:15.090Z,10.20
2019-03-20T18:58:09.284Z,10.28
2019-03-20T19:03:19.017Z,10.34
2019-03-20T19:08:13.185Z,10.39
2019-03-20T19:13:07.496Z,10.38
2019-03-20T19:18:01.634Z,10.36
2019-03-20T19:22:55.943Z,10.27
2019-03-20T19:27:49.987Z,10.17
2019-03-20T19:32:43.990Z,10.05
2019-03-20T19:37:38.262Z,9.92
2019-03-20T19:42:32.249Z,9.81
2019-03-20T19:47:26.451Z,9.66
2019-03-20T19:52:20.830Z,9.48
2019-03-20T19:57:15.109Z,9.34
2019-03-20T20:02:09.468Z,9.16
2019-03-20T20:07:03.571Z,8.97
2019-03-20T20:11:57.664Z,8.81
2019-03-20T20:16:51.745Z,8.66
2019-03-20T20:21:45.857Z,8.51
2019-03-20T20:26:40.010Z,8.40
2019-03-20T20:31:34.130Z,8.28
2019-03-20T20:36:28.241Z,8.18
2019-03-20T20:41:22.491Z,8.06
2019-03-20T20:46:16.589Z,7.97
2019-03-20T20:51:10.576Z,7.87
2019-03-20T20:56:04.592Z,7.79
2019-03-20T21:00:59.006Z,7.70
2019-03-20T21:05:53.024Z,7.62
2019-03-20T21:10:47.043Z,7.53
2019-03-20T21:15:43.431Z,7.44
2019-03-20T21:20:37.436Z,7.36
2019-03-20T21:25:31.412Z,7.28
2019-03-20T21:30:38.205Z,7.19
2019-03-20T21:36:08.533Z,7.08
2019-03-20T21:41:09.062Z,6.99
2019-03-20T21:46:33.087Z,6.91
2019-03-20T21:51:27.281Z,6.87
2019-03-20T21:56:31.136Z,6.77
2019-03-20T22:01:46.826Z,6.68
2019-03-20T22:07:06.594Z,6.64
2019-03-20T22:12:16.689Z,6.58
2019-03-20T22:17:26.470Z,6.54
2019-03-20T22:22:33.195Z,6.48
2019-03-20T22:27:36.903Z,6.44
2019-03-20T22:33:07.921Z,6.35
2019-03-20T22:38:05.429Z,6.30
2019-03-20T22:43:29.470Z,6.18
2019-03-20T22:48:38.024Z,6.15
2019-03-20T22:53:41.625Z,6.04
2019-03-20T22:58:42.159Z,5.96
2019-03-20T23:04:00.054Z,5.91
2019-03-20T23:08:54.021Z,5.84
2019-03-20T23:13:48.714Z,5.79
2019-03-20T23:18:42.686Z,5.73
2019-03-20T23:23:37.487Z,5.72
2019-03-20T23:28:31.459Z,5.69
2019-03-20T23:33:25.459Z,5.64
2019-03-20T23:38:19.438Z,5.58
2019-03-20T23:43:13.409Z,5.48
2019-03-20T23:48:19.600Z,5.48
2019-03-20T23:53:13.522Z,5.46
2019-03-20T23:58:07.490Z,5.47
